createdAt,value
2022-08-30T00:00:39.215Z,86.95
2022-08-30T00:03:11.893Z,108.70
2022-08-30T00:08:12.974Z,97.57
2022-08-30T00:10:44.351Z,113.20
2022-08-30T00:13:14.764Z,108.22
2022-08-30T00:15:44.832Z,105.70
2022-08-30T00:18:15.807Z,105.05
2022-08-30T00:20:48.800Z,109.55
2022-08-30T00:23:19.029Z,98.63
2022-08-30T00:25:48.748Z,99.30
2022-08-30T00:28:18.067Z,108.20
2022-08-30T00:30:48.627Z,106.03
2022-08-30T00:33:18.646Z,102.05
2022-08-30T00:35:49.469Z,84.72
2022-08-30T00:38:18.812Z,100.82
2022-08-30T00:40:50.246Z,88.70
2022-08-30T00:43:24.497Z,92.75
2022-08-30T00:45:58.010Z,93.55
2022-08-30T00:48:27.427Z,90.85
2022-08-30T00:51:03.598Z,98.13
2022-08-30T00:53:39.993Z,79.35
2022-08-30T00:56:10.191Z,92.38
2022-08-30T00:58:46.957Z,82.13
2022-08-30T01:01:17.288Z,87.75
2022-08-30T01:03:47.693Z,88.10
2022-08-30T01:06:19.418Z,87.57
2022-08-30T01:08:49.509Z,89.83
2022-08-30T01:11:23.264Z,93.68
2022-08-30T01:13:55.221Z,88.53
2022-08-30T01:16:25.441Z,96.55
2022-08-30T01:18:59.686Z,83.07
2022-08-30T01:21:40.697Z,86.55
2022-08-30T01:24:12.032Z,84.72
2022-08-30T01:26:41.575Z,81.75
2022-08-30T01:29:16.219Z,82.53
2022-08-30T01:31:46.498Z,81.57
2022-08-30T01:34:15.913Z,86.95
2022-08-30T01:36:47.503Z,75.13
2022-08-30T01:39:20.117Z,99.07
2022-08-30T01:44:19.091Z,98.60
2022-08-30T01:46:49.349Z,105.32
2022-08-30T01:49:26.922Z,103.90
2022-08-30T01:52:01.034Z,101.70
2022-08-30T01:54:38.258Z,96.15
2022-08-30T01:57:11.909Z,106.97
2022-08-30T01:59:47.792Z,100.32
2022-08-30T02:02:20.046Z,98.78
2022-08-30T02:04:50.299Z,102.85
2022-08-30T02:07:19.653Z,105.63
2022-08-30T02:09:51.393Z,92.65
2022-08-30T02:12:21.029Z,100.00
2022-08-30T02:14:50.265Z,104.18
2022-08-30T02:17:20.176Z,105.53
2022-08-30T02:19:49.385Z,99.68
2022-08-30T02:22:18.556Z,111.68
2022-08-30T02:24:49.264Z,104.32
2022-08-30T02:27:19.734Z,95.93
2022-08-30T02:29:49.010Z,101.13
2022-08-30T02:32:18.137Z,110.50
2022-08-30T02:34:48.131Z,105.43
2022-08-30T02:37:20.602Z,119.72
2022-08-30T02:39:51.173Z,111.43
2022-08-30T02:42:20.430Z,101.50
2022-08-30T02:44:49.675Z,109.38
2022-08-30T02:47:18.895Z,104.32
2022-08-30T02:49:51.999Z,91.18
2022-08-30T02:52:22.631Z,105.35
2022-08-30T02:54:59.836Z,98.88
2022-08-30T02:57:30.027Z,100.55
2022-08-30T02:59:59.601Z,105.57
2022-08-30T03:02:30.529Z,101.97
2022-08-30T03:05:00.050Z,107.00
2022-08-30T03:07:31.225Z,117.78
2022-08-30T03:10:02.445Z,104.07
2022-08-30T03:12:32.618Z,104.53
2022-08-30T03:15:05.418Z,90.57
2022-08-30T03:17:34.582Z,95.78
2022-08-30T03:20:05.582Z,107.70
2022-08-30T03:22:34.980Z,103.97
2022-08-30T03:25:09.550Z,103.43
2022-08-30T03:27:38.927Z,105.95
2022-08-30T03:30:10.550Z,113.65
2022-08-30T03:32:39.832Z,100.13
2022-08-30T03:35:10.136Z,92.03
2022-08-30T03:37:39.818Z,104.93
2022-08-30T03:40:13.584Z,99.70
2022-08-30T03:42:43.537Z,110.15
2022-08-30T03:45:15.553Z,101.47
2022-08-30T03:47:45.478Z,99.80
2022-08-30T03:50:16.906Z,99.03
2022-08-30T03:52:46.320Z,112.97
2022-08-30T03:55:17.026Z,97.20
2022-08-30T03:57:46.308Z,104.63
2022-08-30T04:00:18.000Z,110.70
2022-08-30T04:02:47.260Z,97.23
2022-08-30T04:05:18.750Z,97.65
2022-08-30T04:07:48.597Z,101.97
2022-08-30T04:10:21.403Z,122.25
2022-08-30T04:12:51.112Z,95.60
2022-08-30T04:15:21.188Z,107.45
2022-08-30T04:17:51.160Z,98.30
2022-08-30T04:20:20.739Z,110.55
2022-08-30T04:22:50.098Z,109.38
2022-08-30T04:25:21.078Z,91.65
2022-08-30T04:27:50.492Z,101.28
2022-08-30T04:30:20.083Z,93.93
2022-08-30T04:32:49.218Z,95.07
2022-08-30T04:35:18.486Z,99.68
2022-08-30T04:37:48.010Z,106.78
2022-08-30T04:40:17.455Z,99.72
2022-08-30T04:42:48.208Z,88.50
2022-08-30T04:45:18.446Z,103.00
2022-08-30T04:47:49.590Z,95.13
2022-08-30T04:50:21.626Z,102.80
2022-08-30T04:52:50.828Z,88.22
2022-08-30T04:55:20.557Z,114.13
2022-08-30T04:57:51.770Z,93.05
2022-08-30T05:00:23.978Z,104.90
2022-08-30T05:02:53.254Z,91.35
2022-08-30T05:05:41.008Z,86.30
2022-08-30T05:08:11.722Z,101.20
2022-08-30T05:10:43.652Z,83.40
2022-08-30T05:13:15.030Z,91.50
2022-08-30T05:15:45.268Z,84.10
2022-08-30T05:18:15.556Z,96.68
2022-08-30T05:20:45.231Z,90.20
2022-08-30T05:23:14.501Z,87.88
2022-08-30T05:25:44.547Z,86.47
2022-08-30T05:28:15.122Z,92.53
2022-08-30T05:30:44.510Z,84.18
2022-08-30T05:33:13.789Z,89.63
2022-08-30T05:35:43.151Z,95.82
2022-08-30T05:38:12.576Z,93.53
2022-08-30T05:40:42.868Z,97.78
2022-08-30T05:43:14.305Z,102.40
2022-08-30T05:45:44.935Z,88.68
2022-08-30T05:48:14.376Z,84.40
2022-08-30T05:50:43.554Z,94.13
2022-08-30T05:53:12.942Z,93.13
2022-08-30T05:55:43.221Z,80.22
2022-08-30T05:58:12.472Z,98.18
2022-08-30T06:00:45.542Z,77.27
2022-08-30T06:03:14.885Z,79.88
2022-08-30T06:05:44.375Z,74.15
2022-08-30T06:08:13.722Z,81.63
2022-08-30T06:10:45.353Z,90.78
2022-08-30T06:13:15.564Z,81.82
2022-08-30T06:15:47.285Z,86.30
2022-08-30T06:18:16.650Z,81.40
2022-08-30T06:20:50.255Z,81.35
2022-08-30T06:23:21.354Z,90.40
2022-08-30T06:25:50.898Z,92.72
2022-08-30T06:28:23.383Z,78.63
2022-08-30T06:33:24.948Z,54.15
2022-08-30T06:35:58.292Z,73.97
2022-08-30T06:38:32.879Z,83.47
2022-08-30T06:41:02.349Z,88.43
2022-08-30T06:43:33.908Z,86.80
2022-08-30T06:46:05.989Z,88.78
2022-08-30T06:48:35.595Z,82.65
2022-08-30T06:51:06.328Z,88.93
2022-08-30T06:53:38.149Z,89.78
2022-08-30T06:56:11.291Z,84.18
2022-08-30T07:01:16.569Z,66.32
2022-08-30T07:03:46.503Z,79.80
2022-08-30T07:06:16.894Z,76.22
2022-08-30T07:08:54.820Z,93.25
2022-08-30T07:11:32.719Z,75.50
2022-08-30T07:14:03.558Z,83.72
2022-08-30T07:16:34.678Z,90.88
2022-08-30T07:19:05.502Z,43.70
2022-08-30T07:21:37.070Z,54.47
2022-08-30T07:24:10.033Z,69.30
2022-08-30T07:26:49.173Z,55.92
2022-08-30T07:29:19.485Z,49.60
2022-08-30T07:31:50.695Z,63.33
2022-08-30T07:34:26.947Z,65.15
2022-08-30T07:36:56.664Z,67.25
2022-08-30T07:39:25.983Z,65.47
2022-08-30T07:41:55.361Z,72.47
2022-08-30T07:44:25.166Z,70.53
2022-08-30T07:46:56.539Z,62.80
2022-08-30T07:49:25.935Z,69.85
2022-08-30T07:51:55.114Z,73.15
2022-08-30T07:54:24.352Z,90.63
2022-08-30T07:56:55.826Z,85.53
2022-08-30T07:59:25.393Z,64.38
2022-08-30T08:01:56.084Z,61.67
2022-08-30T08:04:25.457Z,58.00
2022-08-30T08:06:56.433Z,64.97
2022-08-30T08:09:25.633Z,61.05
2022-08-30T08:11:55.454Z,75.05
2022-08-30T08:14:24.641Z,75.53
2022-08-30T08:16:55.171Z,75.28
2022-08-30T09:02:34.420Z,114.40
2022-08-30T09:05:05.302Z,125.13
2022-08-30T09:07:42.100Z,121.35
2022-08-30T09:10:11.832Z,109.63
2022-08-30T09:12:41.028Z,125.82
2022-08-30T09:15:20.091Z,156.27
2022-08-30T09:17:57.374Z,125.68
2022-08-30T09:20:32.056Z,99.95
2022-08-30T09:23:27.396Z,115.53
2022-08-30T09:25:59.403Z,118.38
2022-08-30T09:28:32.907Z,110.43
2022-08-30T09:31:11.841Z,93.93
2022-08-30T09:33:41.715Z,105.75
2022-08-30T09:36:20.382Z,104.07
2022-08-30T09:39:01.621Z,105.72
2022-08-30T09:41:42.705Z,134.90
2022-08-30T09:44:18.312Z,109.35
2022-08-30T09:46:51.583Z,111.53
2022-08-30T09:49:35.910Z,102.63
2022-08-30T09:52:25.095Z,88.60
2022-08-30T09:55:18.506Z,104.72
2022-08-30T09:57:58.350Z,90.82
2022-08-30T10:00:31.627Z,85.63
2022-08-30T10:03:14.053Z,93.47
2022-08-30T10:05:53.692Z,108.07
2022-08-30T10:08:40.257Z,86.18
2022-08-30T10:11:28.484Z,85.60
2022-08-30T10:14:25.633Z,97.65
2022-08-30T10:17:06.006Z,97.30
2022-08-30T10:19:54.323Z,96.13
2022-08-30T10:22:29.973Z,74.30
2022-08-30T10:25:11.287Z,105.60
2022-08-30T10:27:54.392Z,102.22
2022-08-30T10:30:25.589Z,100.82
2022-08-30T10:33:04.980Z,103.23
2022-08-30T10:35:41.096Z,71.90
2022-08-30T10:38:22.337Z,104.78
2022-08-30T10:41:14.573Z,70.47
2022-08-30T10:43:56.200Z,71.38
2022-08-30T10:46:35.174Z,70.82
2022-08-30T10:49:10.396Z,99.65
2022-08-30T10:51:48.810Z,104.88
2022-08-30T10:54:29.054Z,75.38
2022-08-30T10:56:59.000Z,89.75
2022-08-30T10:59:31.296Z,119.82
2022-08-30T11:02:49.310Z,106.82
2022-08-30T11:05:42.069Z,83.43
2022-08-30T11:08:26.953Z,80.15
2022-08-30T11:11:06.795Z,81.38
2022-08-30T11:13:44.536Z,83.80
2022-08-30T11:16:20.401Z,109.20
2022-08-30T11:18:53.659Z,87.80
2022-08-30T11:21:32.846Z,83.85
2022-08-30T11:24:11.335Z,101.75
2022-08-30T11:27:02.696Z,91.97
2022-08-30T11:29:44.712Z,91.45
2022-08-30T11:33:02.329Z,74.93
2022-08-30T11:35:48.063Z,79.80
2022-08-30T11:39:01.718Z,76.07
2022-08-30T11:41:41.436Z,64.28
2022-08-30T11:44:31.329Z,70.97
2022-08-30T11:47:02.547Z,82.80
2022-08-30T11:50:11.023Z,76.32
2022-08-30T11:52:56.942Z,86.10
2022-08-30T11:55:45.342Z,48.92
2022-08-30T11:58:37.397Z,83.47
2022-08-30T12:01:50.603Z,99.60
2022-08-30T12:04:48.362Z,94.72
2022-08-30T12:08:01.723Z,90.43
2022-08-30T12:10:40.469Z,70.15
2022-08-30T12:13:10.213Z,101.97
2022-08-30T12:15:59.504Z,91.30
2022-08-30T12:18:45.728Z,101.47
2022-08-30T12:21:29.258Z,89.40
2022-08-30T12:24:08.131Z,97.53
2022-08-30T12:26:41.480Z,77.00
2022-08-30T12:29:18.610Z,70.25
2022-08-30T12:31:53.349Z,89.07
2022-08-30T12:34:27.392Z,150.85
2022-08-30T12:37:04.574Z,96.45
2022-08-30T12:39:38.885Z,74.75
2022-08-30T12:42:20.762Z,66.57
2022-08-30T12:44:52.946Z,64.65
2022-08-30T12:50:01.143Z,84.90
2022-08-30T12:52:36.995Z,64.10
2022-08-30T12:55:19.375Z,63.28
2022-08-30T12:58:02.376Z,79.45
2022-08-30T13:00:34.319Z,51.30
2022-08-30T13:03:14.829Z,64.15
2022-08-30T13:05:52.895Z,68.13
2022-08-30T13:08:30.309Z,64.88
2022-08-30T13:11:08.266Z,72.93
2022-08-30T13:13:44.465Z,60.80
2022-08-30T13:16:29.421Z,66.70
2022-08-30T13:19:27.975Z,72.95
2022-08-30T13:22:00.059Z,65.90
2022-08-30T13:24:32.735Z,81.25
2022-08-30T13:27:09.816Z,66.88
2022-08-30T13:29:40.572Z,73.97
2022-08-30T13:32:13.891Z,67.57
2022-08-30T13:34:43.723Z,63.10
2022-08-30T13:40:09.926Z,81.07
2022-08-30T13:42:43.124Z,68.95
2022-08-30T13:48:07.344Z,54.47
2022-08-30T13:50:36.646Z,74.55
2022-08-30T13:53:05.908Z,50.28
2022-08-30T13:55:36.489Z,58.50
2022-08-30T13:58:07.477Z,68.28
2022-08-30T14:00:39.408Z,79.13
2022-08-30T14:03:10.543Z,67.05
2022-08-30T14:05:49.937Z,71.43
2022-08-30T14:11:16.341Z,73.88
2022-08-30T14:16:46.471Z,104.70
2022-08-30T14:19:19.939Z,75.13
2022-08-30T14:21:52.960Z,79.95
2022-08-30T14:24:23.349Z,87.53
2022-08-30T14:26:53.424Z,84.72
2022-08-30T14:29:30.045Z,90.95
2022-08-30T14:32:00.554Z,92.72
2022-08-30T14:34:35.023Z,84.10
2022-08-30T14:37:08.025Z,128.65
2022-08-30T14:39:38.865Z,85.47
2022-08-30T14:42:11.824Z,99.60
2022-08-30T14:44:56.596Z,90.13
2022-08-30T14:47:29.641Z,100.13
2022-08-30T14:50:02.041Z,82.90
2022-08-30T14:52:32.255Z,112.55
2022-08-30T14:55:09.350Z,81.40
2022-08-30T14:57:40.700Z,86.65
2022-08-30T15:00:16.156Z,91.60
2022-08-30T15:02:46.646Z,142.20
2022-08-30T15:05:16.239Z,102.75
2022-08-30T15:07:46.480Z,85.60
2022-08-30T15:10:16.486Z,86.88
2022-08-30T15:12:48.699Z,80.82
2022-08-30T15:15:22.324Z,76.82
2022-08-30T15:17:52.377Z,76.85
2022-08-30T15:20:21.903Z,85.35
2022-08-30T15:22:51.136Z,82.70
2022-08-30T15:25:21.961Z,99.47
2022-08-30T15:27:52.728Z,79.65
2022-08-30T15:30:24.226Z,145.13
2022-08-30T15:32:53.411Z,104.18
2022-08-30T15:35:22.744Z,83.70
2022-08-30T15:37:53.470Z,96.38
2022-08-30T15:40:24.595Z,108.40
2022-08-30T15:42:55.755Z,76.38
2022-08-30T15:45:26.413Z,63.60
2022-08-30T15:47:55.979Z,75.18
2022-08-30T15:50:25.599Z,71.78
2022-08-30T15:52:55.108Z,69.18
2022-08-30T15:55:24.809Z,64.47
2022-08-30T15:57:55.808Z,72.05
2022-08-30T16:00:26.835Z,63.17
2022-08-30T16:02:56.124Z,70.82
2022-08-30T16:05:25.423Z,89.75
2022-08-30T16:07:54.628Z,69.47
2022-08-30T16:10:24.036Z,87.22
2022-08-30T16:12:53.741Z,84.97
2022-08-30T16:15:22.892Z,71.32
2022-08-30T16:17:53.814Z,68.97
2022-08-30T16:20:23.129Z,57.10
2022-08-30T16:22:52.499Z,116.22
2022-08-30T16:25:21.977Z,85.80
2022-08-30T16:27:53.410Z,110.70
2022-08-30T16:30:23.037Z,103.93
2022-08-30T16:32:53.911Z,79.28
2022-08-30T16:35:23.953Z,78.18
2022-08-30T16:37:53.184Z,97.43
2022-08-30T16:40:22.447Z,82.32
2022-08-30T16:42:51.920Z,107.30
2022-08-30T16:45:21.555Z,99.25
2022-08-30T16:47:54.803Z,75.00
2022-08-30T16:50:24.227Z,86.25
2022-08-30T16:52:53.520Z,91.20
2022-08-30T16:55:22.999Z,81.68
2022-08-30T16:57:52.236Z,105.57
2022-08-30T17:00:21.710Z,80.15
2022-08-30T17:02:56.384Z,76.95
2022-08-30T17:05:25.984Z,78.10
2022-08-30T17:07:55.626Z,87.05
2022-08-30T17:10:26.423Z,99.90
2022-08-30T17:13:03.222Z,91.28
2022-08-30T17:15:34.149Z,88.90
2022-08-30T17:18:05.424Z,101.30
2022-08-30T17:20:35.102Z,99.38
2022-08-30T17:23:04.893Z,126.78
2022-08-30T17:25:34.378Z,91.28
2022-08-30T17:28:04.449Z,98.38
2022-08-30T17:30:35.015Z,102.75
2022-08-30T17:33:06.371Z,99.93
2022-08-30T17:35:36.473Z,91.60
2022-08-30T17:38:05.795Z,100.32
2022-08-30T17:40:35.112Z,104.13
2022-08-30T17:43:04.387Z,97.88
2022-08-30T17:45:33.856Z,97.05
2022-08-30T17:48:07.136Z,90.05
2022-08-30T17:50:36.856Z,97.05
2022-08-30T17:53:06.323Z,102.10
2022-08-30T17:55:36.089Z,99.38
2022-08-30T17:58:05.306Z,104.32
2022-08-30T18:00:35.854Z,99.80
2022-08-30T18:03:06.741Z,110.97
2022-08-30T18:05:38.267Z,97.00
2022-08-30T18:08:11.088Z,82.43
2022-08-30T18:10:40.577Z,80.78
2022-08-30T18:13:10.465Z,89.38
2022-08-30T18:15:44.119Z,86.53
2022-08-30T18:18:15.363Z,98.35
2022-08-30T18:20:44.590Z,79.97
2022-08-30T18:23:14.099Z,89.88
2022-08-30T18:25:51.724Z,95.78
2022-08-30T18:28:20.911Z,93.72
2022-08-30T18:30:50.085Z,91.82
2022-08-30T18:33:20.977Z,89.20
2022-08-30T18:35:50.604Z,91.32
2022-08-30T18:38:23.561Z,87.07
2022-08-30T18:40:53.737Z,147.55
2022-08-30T18:43:24.621Z,93.18
2022-08-30T18:46:03.886Z,78.95
2022-08-30T18:48:37.238Z,82.00
2022-08-30T18:51:12.718Z,97.93
2022-08-30T18:53:43.109Z,83.72
2022-08-30T18:56:16.323Z,88.35
2022-08-30T18:58:47.585Z,94.40
2022-08-30T19:01:22.160Z,91.88
2022-08-30T19:03:53.442Z,95.38
2022-08-30T19:06:22.728Z,84.60
2022-08-30T19:08:52.883Z,88.50
2022-08-30T19:11:22.034Z,92.95
2022-08-30T19:13:52.981Z,84.95
2022-08-30T19:16:23.221Z,83.85
2022-08-30T19:18:56.463Z,79.75
2022-08-30T19:21:25.923Z,86.55
2022-08-30T19:23:55.336Z,83.22
2022-08-30T19:26:24.740Z,85.97
2022-08-30T19:28:57.003Z,82.22
2022-08-30T19:31:26.377Z,86.95
2022-08-30T19:33:58.007Z,90.05
2022-08-30T19:36:28.936Z,81.45
2022-08-30T19:38:58.240Z,73.78
2022-08-30T19:41:29.773Z,77.45
2022-08-30T19:44:01.183Z,72.15
2022-08-30T19:49:04.439Z,81.93
2022-08-30T19:51:33.908Z,85.83
2022-08-30T19:54:05.739Z,82.13
2022-08-30T19:56:37.180Z,83.50
2022-08-30T19:59:06.435Z,72.57
2022-08-30T20:01:36.136Z,86.88
2022-08-30T20:04:07.239Z,86.50
2022-08-30T20:06:37.089Z,89.07
2022-08-30T20:09:10.408Z,96.43
2022-08-30T20:11:42.871Z,76.55
2022-08-30T20:14:13.909Z,91.28
2022-08-30T20:16:43.373Z,95.88
2022-08-30T20:19:18.575Z,91.28
2022-08-30T20:21:51.197Z,82.85
2022-08-30T20:24:22.766Z,92.18
2022-08-30T20:26:52.067Z,86.45
2022-08-30T20:29:21.584Z,110.45
2022-08-30T20:31:51.028Z,87.18
2022-08-30T20:34:27.305Z,89.68
2022-08-30T20:36:57.662Z,107.00
2022-08-30T20:39:27.143Z,98.90
2022-08-30T20:41:56.895Z,106.05
2022-08-30T20:44:26.119Z,108.20
2022-08-30T20:46:55.321Z,100.90
2022-08-30T20:49:26.006Z,105.10
2022-08-30T20:51:55.241Z,97.40
2022-08-30T20:54:24.438Z,117.25
2022-08-30T20:56:53.758Z,108.38
2022-08-30T20:59:23.030Z,115.63
2022-08-30T21:01:52.457Z,110.00
2022-08-30T21:04:25.857Z,121.95
2022-08-30T21:06:55.168Z,125.13
2022-08-30T21:09:24.589Z,116.65
2022-08-30T21:11:53.847Z,120.85
2022-08-30T21:14:23.920Z,136.27
2022-08-30T21:16:53.267Z,112.88
2022-08-30T21:19:22.503Z,113.55
2022-08-30T21:21:53.259Z,111.22
2022-08-30T21:24:22.609Z,125.65
2022-08-30T21:26:52.250Z,120.13
2022-08-30T21:29:21.922Z,120.25
2022-08-30T21:31:51.300Z,120.25
2022-08-30T21:34:20.772Z,117.25
2022-08-30T21:36:49.071Z,119.75
2022-08-30T21:39:23.101Z,132.45
2022-08-30T21:41:57.053Z,117.80
2022-08-30T21:44:28.206Z,136.05
2022-08-30T21:46:57.573Z,117.03
2022-08-30T21:49:26.932Z,119.22
2022-08-30T21:51:56.682Z,110.03
2022-08-30T21:54:31.443Z,111.72
2022-08-30T21:57:05.113Z,119.25
2022-08-30T21:59:36.700Z,132.48
2022-08-30T22:02:06.630Z,123.72
2022-08-30T22:04:36.170Z,129.15
2022-08-30T22:07:07.565Z,99.22
2022-08-30T22:09:39.160Z,123.88
2022-08-30T22:12:09.316Z,123.03
2022-08-30T22:14:41.016Z,131.18
2022-08-30T22:17:10.634Z,109.13
2022-08-30T22:19:39.895Z,107.28
2022-08-30T22:22:09.337Z,119.10
2022-08-30T22:24:40.487Z,117.70
2022-08-30T22:27:10.058Z,121.78
2022-08-30T22:29:39.461Z,100.35
2022-08-30T22:32:09.176Z,121.43
2022-08-30T22:34:39.228Z,107.00
2022-08-30T22:37:08.602Z,114.10
2022-08-30T22:39:39.312Z,122.47
2022-08-30T22:42:09.898Z,116.85
2022-08-30T22:44:39.343Z,106.45
2022-08-30T22:47:09.127Z,127.00
2022-08-30T22:49:43.404Z,104.47
2022-08-30T22:52:13.278Z,120.68
2022-08-30T22:54:48.434Z,110.38
2022-08-30T22:57:20.453Z,118.80
2022-08-30T22:59:50.140Z,117.65
2022-08-30T23:02:19.708Z,115.80
2022-08-30T23:04:48.869Z,111.82
2022-08-30T23:07:20.766Z,107.40
2022-08-30T23:09:51.471Z,112.80
2022-08-30T23:12:20.772Z,117.78
2022-08-30T23:14:51.002Z,113.60
2022-08-30T23:17:24.974Z,112.32
2022-08-30T23:19:59.317Z,80.57
2022-08-30T23:22:32.424Z,104.35
2022-08-30T23:25:21.625Z,96.53
2022-08-30T23:28:20.537Z,90.75
2022-08-30T23:31:07.773Z,88.70
2022-08-30T23:33:54.057Z,88.80
2022-08-30T23:36:41.233Z,95.03
2022-08-30T23:39:28.292Z,95.95
2022-08-30T23:42:17.379Z,77.18
2022-08-30T23:45:04.035Z,90.15
2022-08-30T23:47:50.725Z,83.93
2022-08-30T23:50:37.738Z,85.13
2022-08-30T23:53:24.519Z,94.45
2022-08-30T23:56:11.465Z,83.07
2022-08-30T23:58:59.962Z,82.55
